Dolph, Arkansas
Current Conditions -  °F | °C
As of 11:53 PM on Sunday 21 Dec 2014 (Local Time) from KBPK Reporting Station
Overcast Overcast  
Wind Chill:   Ceiling: 3400
Heat Index:   Visibility: 9mi
Dew Point:   Wind: 6mph
Humidity: 79%   Direction: 120°ESE
Pressure: 29.85"   Gusts: NA
Location:  36.23°N, 92.11°W
Report Text: KBPK 220553Z AUTO 12005KT 9SM OVC034 06/02 A2985 RMK AO2 SLP109 T00560022 10072 20056 400830033 56018
Loading
Personal Weather Stations






























Interactive Weather Map New forecast layout! Learn more

10-Day Weather Forecast

Advertisements
Track Severe Weather on mobile